createdAt,value
2014-09-12T00:00:18.775Z,15.86
2014-09-12T00:01:23.747Z,16.01
2014-09-12T00:02:28.451Z,15.78
2014-09-12T00:03:33.438Z,16.02
2014-09-12T00:04:38.111Z,16.04
2014-09-12T00:05:42.802Z,16.09
2014-09-12T00:06:47.491Z,16.1
2014-09-12T00:07:52.164Z,16.1
2014-09-12T00:08:57.152Z,16.27
2014-09-12T00:10:01.841Z,16.22
2014-09-12T00:11:06.515Z,16.34
2014-09-12T00:12:11.501Z,16.27
2014-09-12T00:13:16.488Z,16.08
2014-09-12T00:14:21.177Z,16
2014-09-12T00:15:25.868Z,16.02
2014-09-12T00:16:30.837Z,16.15
2014-09-12T00:17:35.825Z,16.14
2014-09-12T00:18:40.810Z,16.13
2014-09-12T00:19:45.501Z,15.88
2014-09-12T00:20:50.471Z,16
2014-09-12T00:21:55.161Z,16.25
2014-09-12T00:23:00.132Z,16.18
2014-09-12T00:24:05.118Z,16.26
2014-09-12T00:25:10.104Z,16.25
2014-09-12T00:26:14.778Z,16.25
2014-09-12T00:27:19.483Z,15.97
2014-09-12T00:28:24.157Z,15.9
2014-09-12T00:29:28.848Z,16.04
2014-09-12T00:30:33.536Z,15.84
2014-09-12T00:31:38.210Z,15.87
2014-09-12T00:32:42.901Z,15.92
2014-09-12T00:33:47.575Z,16.06
2014-09-12T00:34:52.561Z,15.79
2014-09-12T00:35:57.532Z,15.88
2014-09-12T00:37:02.220Z,15.88
2014-09-12T00:38:06.911Z,15.88
2014-09-12T00:39:11.585Z,16.05
2014-09-12T00:40:16.275Z,16.04
2014-09-12T00:41:20.964Z,16.04
2014-09-12T00:42:25.637Z,16.18
2014-09-12T00:43:30.625Z,16.18
2014-09-12T00:44:35.313Z,15.93
2014-09-12T00:45:40.003Z,16.06
2014-09-12T00:46:44.678Z,15.95
2014-09-12T00:47:49.366Z,15.82
2014-09-12T00:48:54.354Z,15.88
2014-09-12T00:49:59.323Z,15.94
2014-09-12T00:51:04.311Z,16.01
2014-09-12T00:52:09.000Z,15.96
2014-09-12T00:53:13.674Z,15.89
2014-09-12T00:54:18.379Z,15.85
2014-09-12T00:55:23.054Z,15.75
2014-09-12T00:56:27.743Z,15.98
2014-09-12T00:57:32.432Z,15.94
2014-09-12T00:58:37.404Z,16.13
2014-09-12T00:59:42.092Z,16.09
2014-09-12T01:00:46.766Z,15.96
2014-09-12T01:01:51.457Z,16.13
2014-09-12T01:02:56.145Z,16.19
2014-09-12T01:04:00.836Z,16.13
2014-09-12T01:05:05.510Z,16.17
2014-09-12T01:06:10.199Z,16.26
2014-09-12T01:07:14.873Z,16.19
2014-09-12T01:08:19.562Z,16.22
2014-09-12T01:09:24.549Z,16.11
2014-09-12T01:10:29.223Z,16.26
2014-09-12T01:11:33.912Z,16.31
2014-09-12T01:12:38.900Z,16.25
2014-09-12T01:13:43.572Z,16.16
2014-09-12T01:14:48.263Z,16.07
2014-09-12T01:15:53.234Z,16.06
2014-09-12T01:16:57.922Z,16.04
2014-09-12T01:18:02.910Z,16.07
2014-09-12T01:19:07.583Z,16.08
2014-09-12T01:20:12.570Z,16.13
2014-09-12T01:21:17.259Z,16.21
2014-09-12T01:22:21.261Z,16.37
2014-09-12T01:23:26.232Z,16.24
2014-09-12T01:24:30.922Z,16.32
2014-09-12T01:25:35.595Z,16.1
2014-09-12T01:26:40.286Z,16.05
2014-09-12T01:27:44.974Z,16.14
2014-09-12T01:28:49.945Z,15.97
2014-09-12T01:29:54.635Z,15.85
2014-09-12T01:30:59.324Z,15.87
2014-09-12T01:32:03.999Z,15.86
2014-09-12T01:33:08.984Z,16.2
2014-09-12T01:34:13.971Z,16.2
2014-09-12T01:35:18.646Z,16.14
2014-09-12T01:36:23.334Z,16.22
2014-09-12T01:37:28.025Z,16.14
2014-09-12T01:38:32.699Z,16.12
2014-09-12T01:39:37.388Z,16.04
2014-09-12T01:40:42.062Z,16.2
2014-09-12T01:41:46.751Z,16.05
2014-09-12T01:42:51.738Z,15.97
2014-09-12T01:43:56.459Z,16.01
2014-09-12T01:45:01.132Z,16.11
2014-09-12T01:46:06.120Z,16.07
2014-09-12T01:47:10.794Z,16.06
2014-09-12T01:48:15.482Z,16.25
2014-09-12T01:49:20.454Z,16.19
2014-09-12T01:50:25.439Z,16.28
2014-09-12T01:51:30.427Z,16.22
2014-09-12T01:52:35.101Z,16.3
2014-09-12T01:53:39.790Z,15.96
2014-09-12T01:54:44.776Z,16.08
2014-09-12T01:55:49.763Z,16.26
2014-09-12T01:56:54.437Z,16.29
2014-09-12T01:57:59.424Z,16.22
2014-09-12T01:59:04.098Z,16.44
2014-09-12T02:00:08.802Z,16.44
2014-09-12T02:01:13.477Z,16.11
2014-09-12T02:06:33.065Z,16.22
2014-09-12T02:07:37.755Z,16.21
2014-09-12T02:08:42.428Z,16.22
2014-09-12T02:09:47.415Z,16.44
2014-09-12T02:10:52.089Z,16.21
2014-09-12T02:11:56.778Z,16.21
2014-09-12T02:13:01.453Z,16.11
2014-09-12T02:14:06.143Z,16.07
2014-09-12T02:15:10.815Z,15.9
2014-09-12T02:16:15.505Z,15.96
2014-09-12T02:17:20.180Z,16.06
2014-09-12T02:18:25.165Z,15.84
2014-09-12T02:19:29.856Z,15.92
2014-09-12T02:20:34.530Z,15.77
2014-09-12T02:21:39.219Z,15.8
2014-09-12T02:22:44.190Z,15.85
2014-09-12T02:23:48.879Z,16.01
2014-09-12T02:24:53.553Z,16.15
2014-09-12T02:25:58.243Z,16.17
2014-09-12T02:27:02.917Z,16.26
2014-09-12T02:28:07.607Z,16.28
2014-09-12T02:29:12.577Z,16.04
2014-09-12T02:30:17.266Z,15.96
2014-09-12T02:31:21.940Z,15.91
2014-09-12T02:32:26.927Z,16.14
2014-09-12T02:33:31.897Z,16.26
2014-09-12T02:34:36.588Z,16.31
2014-09-12T02:35:41.262Z,16.01
2014-09-12T02:36:45.950Z,16.11
2014-09-12T02:37:50.641Z,16.18
2014-09-12T02:38:55.329Z,16.16
2014-09-12T02:40:00.301Z,16.1
2014-09-12T02:41:05.287Z,16.12
2014-09-12T02:42:09.977Z,16.16
2014-09-12T02:43:14.651Z,16.12
2014-09-12T02:44:19.325Z,16.3
2014-09-12T02:45:24.312Z,16.15
2014-09-12T02:46:29.282Z,15.76
2014-09-12T02:47:33.971Z,15.92
2014-09-12T02:48:38.662Z,15.92
2014-09-12T02:49:43.336Z,16.08
2014-09-12T02:50:48.025Z,16.12
2014-09-12T02:51:52.715Z,15.97
2014-09-12T02:52:57.388Z,16.15
2014-09-12T02:54:02.078Z,16.04
2014-09-12T02:55:07.064Z,16.14
2014-09-12T02:56:11.738Z,16.22
2014-09-12T02:57:16.428Z,16.23
2014-09-12T02:58:21.414Z,16.21
2014-09-12T02:59:26.089Z,16.28
2014-09-12T03:00:30.778Z,16.35
2014-09-12T03:01:35.468Z,16.44
2014-09-12T03:02:40.453Z,16.35
2014-09-12T03:03:45.127Z,16.32
2014-09-12T03:04:49.802Z,16.3
2014-09-12T03:05:54.492Z,16.28
2014-09-12T03:06:59.165Z,16
2014-09-12T03:08:03.855Z,16.08
2014-09-12T03:09:08.529Z,16.12
2014-09-12T03:10:13.218Z,16.3
2014-09-12T03:11:17.908Z,16.12
2014-09-12T03:12:22.879Z,16.16
2014-09-12T03:13:27.866Z,16.14
2014-09-12T03:14:32.539Z,16.35
2014-09-12T03:15:37.228Z,16.26
2014-09-12T03:16:41.902Z,16.2
2014-09-12T03:17:46.889Z,16.14
2014-09-12T03:18:51.562Z,16.36
2014-09-12T03:19:56.550Z,16.45
2014-09-12T03:21:01.224Z,16.4
2014-09-12T03:22:05.912Z,16.53
2014-09-12T03:23:09.900Z,16.56
2014-09-12T03:24:14.589Z,16.35
2014-09-12T03:25:19.263Z,16.45
2014-09-12T03:26:23.952Z,16.41
2014-09-12T03:27:28.939Z,16.27
2014-09-12T03:28:33.910Z,16.28
2014-09-12T03:29:38.600Z,16.33
2014-09-12T03:30:43.571Z,16.1
2014-09-12T03:31:48.259Z,16.05
2014-09-12T03:32:52.933Z,15.99
2014-09-12T03:33:57.921Z,16.18
2014-09-12T03:35:02.610Z,16.12
2014-09-12T03:36:07.284Z,16.09
2014-09-12T03:37:11.973Z,16.15
2014-09-12T03:38:16.647Z,16.14
2014-09-12T03:39:21.337Z,16.04
2014-09-12T03:40:26.323Z,16.2
2014-09-12T03:41:30.998Z,16
2014-09-12T03:42:35.671Z,16.14
2014-09-12T03:43:40.360Z,16.06
2014-09-12T03:44:45.034Z,15.92
2014-09-12T03:45:49.725Z,15.94
2014-09-12T03:46:54.413Z,15.98
2014-09-12T03:47:59.103Z,16.34
2014-09-12T03:49:03.778Z,16.22
2014-09-12T03:50:08.452Z,16.09
2014-09-12T03:51:13.141Z,16.01
2014-09-12T03:52:18.127Z,15.98
2014-09-12T03:53:22.801Z,15.75
2014-09-12T03:54:27.490Z,16.04
2014-09-12T03:55:32.165Z,15.92
2014-09-12T03:56:36.839Z,15.6
2014-09-12T03:57:41.529Z,15.67
2014-09-12T03:58:46.219Z,15.7
2014-09-12T03:59:50.891Z,15.76
2014-09-12T04:00:55.581Z,15.86
2014-09-12T04:02:00.256Z,15.96
2014-09-12T04:03:04.945Z,15.88
2014-09-12T04:04:09.618Z,15.86
2014-09-12T04:05:14.606Z,15.97
2014-09-12T04:06:19.279Z,15.81
2014-09-12T04:07:23.968Z,15.96
2014-09-12T04:08:28.643Z,15.96
2014-09-12T04:09:33.332Z,16.09
2014-09-12T04:10:37.319Z,16.22
2014-09-12T04:11:42.305Z,16.1
2014-09-12T04:12:46.979Z,15.96
2014-09-12T04:13:51.668Z,15.96
2014-09-12T04:14:56.342Z,16.06
2014-09-12T04:16:01.032Z,16.04
2014-09-12T04:17:05.706Z,15.86
2014-09-12T04:18:10.692Z,15.88
2014-09-12T04:19:15.664Z,16.13
2014-09-12T04:20:20.649Z,16.1
2014-09-12T04:21:25.621Z,16.12
2014-09-12T04:22:30.310Z,16.12
2014-09-12T04:23:34.984Z,16.14
2014-09-12T04:24:39.673Z,16.28
2014-09-12T04:25:44.348Z,16.14
2014-09-12T04:26:49.053Z,16.03
2014-09-12T04:27:53.727Z,15.9
2014-09-12T04:28:58.416Z,16.1
2014-09-12T04:30:03.388Z,16
2014-09-12T04:31:08.062Z,16.04
2014-09-12T04:32:12.750Z,15.84
2014-09-12T04:33:17.424Z,15.78
2014-09-12T04:34:22.412Z,15.96
2014-09-12T04:35:27.397Z,16.06
2014-09-12T04:36:32.072Z,16.15
2014-09-12T04:37:36.761Z,16.28
2014-09-12T04:38:41.434Z,16.24
2014-09-12T04:39:46.125Z,16
2014-09-12T04:40:51.095Z,16.12
2014-09-12T04:41:55.801Z,16.13
2014-09-12T04:43:00.474Z,16.01
2014-09-12T04:44:05.461Z,16.12
2014-09-12T04:45:10.135Z,16.1
2014-09-12T04:46:14.824Z,15.9
2014-09-12T04:47:19.499Z,15.86
2014-09-12T04:48:24.188Z,16.05
2014-09-12T04:49:28.877Z,15.8
2014-09-12T04:50:33.552Z,15.67
2014-09-12T04:51:38.241Z,15.88
2014-09-12T04:52:42.930Z,15.86
2014-09-12T04:53:47.605Z,15.96
2014-09-12T04:54:52.294Z,16.07
2014-09-12T04:55:56.984Z,15.86
2014-09-12T04:57:01.658Z,15.76
2014-09-12T04:58:06.347Z,15.79
2014-09-12T04:59:11.319Z,15.84
2014-09-12T05:00:16.007Z,15.75
2014-09-12T05:01:20.681Z,15.76
2014-09-12T05:02:25.371Z,15.9
2014-09-12T05:03:30.046Z,16.09
2014-09-12T05:04:34.734Z,15.88
2014-09-12T05:05:39.409Z,15.87
2014-09-12T05:06:44.552Z,16.04
2014-09-12T05:07:49.226Z,16.01
2014-09-12T05:08:54.212Z,15.93
2014-09-12T05:09:58.886Z,15.63
2014-09-12T05:11:03.872Z,15.62
2014-09-12T05:12:08.843Z,15.74
2014-09-12T05:13:13.829Z,15.85
2014-09-12T05:14:18.801Z,15.92
2014-09-12T05:15:23.490Z,15.74
2014-09-12T05:16:28.476Z,15.9
2014-09-12T05:17:33.151Z,15.86
2014-09-12T05:18:37.839Z,15.79
2014-09-12T05:19:42.513Z,15.75
2014-09-12T05:20:47.501Z,15.72
2014-09-12T05:21:52.470Z,15.82
2014-09-12T05:22:57.755Z,15.79
2014-09-12T05:24:02.444Z,15.74
2014-09-12T05:25:07.118Z,15.67
2014-09-12T05:26:11.807Z,15.48
2014-09-12T05:27:16.513Z,15.66
2014-09-12T05:28:21.541Z,15.65
2014-09-12T05:29:26.271Z,15.74
2014-09-12T05:30:31.283Z,15.63
2014-09-12T05:31:36.008Z,15.78
2014-09-12T05:32:40.713Z,15.84
2014-09-12T05:33:45.416Z,15.9
2014-09-12T05:34:50.104Z,15.94
2014-09-12T05:35:55.121Z,15.99
2014-09-12T05:36:59.821Z,16.02
2014-09-12T05:38:04.516Z,15.92
2014-09-12T05:39:09.195Z,16.16
2014-09-12T05:40:13.890Z,15.83
2014-09-12T05:41:18.882Z,15.68
2014-09-12T05:42:23.558Z,15.64
2014-09-12T05:43:28.545Z,15.78
2014-09-12T05:44:33.237Z,15.73
2014-09-12T05:45:37.913Z,15.66
2014-09-12T05:46:42.603Z,15.74
2014-09-12T05:47:47.592Z,15.65
2014-09-12T05:48:52.265Z,15.7
2014-09-12T05:49:56.957Z,15.73
2014-09-12T05:51:01.631Z,15.9
2014-09-12T05:52:06.320Z,15.86
2014-09-12T05:53:11.308Z,15.84
2014-09-12T05:54:15.982Z,15.69
2014-09-12T05:55:20.671Z,15.99
2014-09-12T05:56:25.361Z,15.96
2014-09-12T05:57:30.034Z,15.95
2014-09-12T05:58:35.021Z,16.06
2014-09-12T05:59:39.695Z,15.92
2014-09-12T06:00:44.384Z,15.9
2014-09-12T06:01:49.075Z,15.93
2014-09-12T06:02:53.748Z,16.26
2014-09-12T06:03:58.438Z,16.2
2014-09-12T06:05:03.128Z,16.11
2014-09-12T06:06:07.800Z,15.9
2014-09-12T06:07:12.491Z,15.76
2014-09-12T06:08:17.165Z,15.78
2014-09-12T06:09:21.167Z,15.8
2014-09-12T06:10:25.856Z,15.83
2014-09-12T06:11:30.843Z,15.83
2014-09-12T06:12:35.532Z,16.08
2014-09-12T06:13:40.206Z,15.92
2014-09-12T06:14:44.911Z,15.96
2014-09-12T06:15:49.586Z,16.12
2014-09-12T06:16:54.275Z,16.29
2014-09-12T06:17:58.948Z,15.96
2014-09-12T06:19:03.936Z,15.84
2014-09-12T06:20:08.624Z,15.82
2014-09-12T06:21:13.298Z,15.66
2014-09-12T06:22:17.989Z,15.64
2014-09-12T06:23:22.959Z,15.76
2014-09-12T06:24:27.649Z,15.55
2014-09-12T06:25:32.635Z,15.57
2014-09-12T06:26:37.340Z,15.62
2014-09-12T06:27:42.030Z,15.77
2014-09-12T06:28:47.016Z,15.74
2014-09-12T06:29:51.988Z,15.53
2014-09-12T06:30:56.677Z,15.64
2014-09-12T06:32:01.367Z,15.86
2014-09-12T06:33:06.338Z,15.94
2014-09-12T06:34:11.026Z,15.86
2014-09-12T06:35:15.717Z,15.6
2014-09-12T06:36:20.391Z,15.66
2014-09-12T06:37:25.079Z,15.74
2014-09-12T06:38:30.051Z,16
2014-09-12T06:39:35.036Z,15.95
2014-09-12T06:40:40.024Z,15.88
2014-09-12T06:41:45.010Z,16.01
2014-09-12T06:42:49.981Z,15.93
2014-09-12T06:43:54.967Z,16.08
2014-09-12T06:44:59.657Z,16.24
2014-09-12T06:46:04.627Z,16.04
2014-09-12T06:47:09.615Z,16.09
2014-09-12T06:48:14.600Z,16.02
2014-09-12T06:49:19.572Z,15.96
2014-09-12T06:50:24.260Z,15.86
2014-09-12T06:51:28.950Z,16.04
2014-09-12T06:52:33.625Z,15.97
2014-09-12T06:53:38.313Z,16.04
2014-09-12T06:54:43.003Z,15.99
2014-09-12T06:55:47.678Z,15.9
2014-09-12T06:56:52.664Z,15.92
2014-09-12T06:57:57.634Z,16.09
2014-09-12T06:59:02.620Z,16
2014-09-12T07:00:07.295Z,16.09
2014-09-12T07:01:11.985Z,16.12
2014-09-12T07:02:16.658Z,15.98
2014-09-12T07:03:21.348Z,16.2
2014-09-12T07:04:26.037Z,16.22
2014-09-12T07:05:31.008Z,15.74
2014-09-12T07:06:35.996Z,16.04
2014-09-12T07:07:40.669Z,16.26
2014-09-12T07:08:45.359Z,16.14
2014-09-12T07:09:50.361Z,16.09
2014-09-12T07:10:54.347Z,15.97
2014-09-12T07:11:59.037Z,16.08
2014-09-12T07:13:03.711Z,16.08
2014-09-12T07:14:08.400Z,15.92
2014-09-12T07:15:13.075Z,15.86
2014-09-12T07:16:17.749Z,15.9
2014-09-12T07:17:22.437Z,16.03
2014-09-12T07:18:27.111Z,16.14
2014-09-12T07:19:31.802Z,16.08
2014-09-12T07:20:36.476Z,15.91
2014-09-12T07:21:41.164Z,16.17
2014-09-12T07:22:45.855Z,15.96
2014-09-12T07:23:50.825Z,15.87
2014-09-12T07:24:55.811Z,15.99
2014-09-12T07:26:00.486Z,15.98
2014-09-12T07:27:05.160Z,15.89
2014-09-12T07:28:09.162Z,15.97
2014-09-12T07:29:14.148Z,15.94
2014-09-12T07:30:19.119Z,15.94
2014-09-12T07:31:23.808Z,16.02
2014-09-12T07:32:28.780Z,15.9
2014-09-12T07:33:33.468Z,16.12
2014-09-12T07:34:38.142Z,16.19
2014-09-12T07:35:43.144Z,15.96
2014-09-12T07:36:47.818Z,15.81
2014-09-12T07:37:52.509Z,15.63
2014-09-12T07:38:57.479Z,15.5
2014-09-12T07:40:02.466Z,15.39
2014-09-12T07:41:07.140Z,15.68
2014-09-12T07:42:11.829Z,15.23
2014-09-12T07:43:16.504Z,15.36
2014-09-12T07:44:21.193Z,15.4
2014-09-12T07:45:26.163Z,15.4
2014-09-12T07:46:31.150Z,15.53
2014-09-12T07:47:35.824Z,15.72
2014-09-12T07:48:40.514Z,15.82
2014-09-12T07:49:45.188Z,15.67
2014-09-12T07:50:49.876Z,15.88
2014-09-12T07:51:54.550Z,15.62
2014-09-12T07:52:59.538Z,15.7
2014-09-12T07:54:04.212Z,15.8
2014-09-12T07:55:09.198Z,15.88
2014-09-12T07:56:13.887Z,15.89
2014-09-12T07:57:18.561Z,16.03
2014-09-12T07:58:23.251Z,15.81
2014-09-12T07:59:27.925Z,15.51
2014-09-12T08:00:32.614Z,15.6
2014-09-12T08:01:37.289Z,15.67
2014-09-12T08:02:41.963Z,15.79
2014-09-12T08:03:46.948Z,15.86
2014-09-12T08:04:51.920Z,15.98
2014-09-12T08:05:56.610Z,15.93
2014-09-12T08:07:01.282Z,15.81
2014-09-12T08:08:05.973Z,15.86
2014-09-12T08:09:10.647Z,15.96
2014-09-12T08:10:15.633Z,15.87
2014-09-12T08:11:20.307Z,15.88
2014-09-12T08:12:24.997Z,15.84
2014-09-12T08:13:29.967Z,15.57
2014-09-12T08:14:34.657Z,15.71
2014-09-12T08:15:39.331Z,15.84
2014-09-12T08:16:44.005Z,15.67
2014-09-12T08:17:48.695Z,15.92
2014-09-12T08:18:53.385Z,15.46
2014-09-12T08:19:58.090Z,15.45
2014-09-12T08:21:03.059Z,15.48
2014-09-12T08:22:07.749Z,15.54
2014-09-12T08:23:12.424Z,15.78
2014-09-12T08:24:17.098Z,15.64
2014-09-12T08:25:21.786Z,15.7
2014-09-12T08:26:26.758Z,15.74
2014-09-12T08:27:31.447Z,15.8
2014-09-12T08:28:36.121Z,15.66
2014-09-12T08:29:40.811Z,15.6
2014-09-12T08:30:45.485Z,15.67
2014-09-12T08:31:50.472Z,15.77
2014-09-12T08:32:55.146Z,15.88
2014-09-12T08:33:59.834Z,15.5
2014-09-12T08:35:04.805Z,15.7
2014-09-12T08:36:09.793Z,15.55
2014-09-12T08:37:14.466Z,15.54
2014-09-12T08:38:19.156Z,15.76
2014-09-12T08:39:23.830Z,15.91
2014-09-12T08:40:28.815Z,15.7
2014-09-12T08:41:33.803Z,15.86
2014-09-12T08:42:38.476Z,15.64
2014-09-12T08:43:43.166Z,15.58
2014-09-12T08:44:47.840Z,15.88
2014-09-12T08:45:52.529Z,15.98
2014-09-12T08:46:57.219Z,15.81
2014-09-12T08:48:01.893Z,15.79
2014-09-12T08:49:06.567Z,15.74
2014-09-12T08:50:11.257Z,15.79
2014-09-12T08:51:15.931Z,15.87
2014-09-12T08:52:20.620Z,15.46
2014-09-12T08:53:25.310Z,15.65
2014-09-12T08:54:29.312Z,15.44
2014-09-12T08:55:34.283Z,15.88
2014-09-12T08:56:39.003Z,15.68
2014-09-12T08:57:43.677Z,15.85
2014-09-12T08:58:48.367Z,15.64
2014-09-12T08:59:53.338Z,15.66
2014-09-12T09:00:58.308Z,15.56
2014-09-12T09:02:02.999Z,15.54
2014-09-12T09:03:07.984Z,15.7
2014-09-12T09:04:12.956Z,15.7
2014-09-12T09:05:17.942Z,15.82
2014-09-12T09:06:22.615Z,15.9
2014-09-12T09:07:27.290Z,15.92
2014-09-12T09:08:32.276Z,15.78
2014-09-12T09:09:37.262Z,16
2014-09-12T09:10:42.234Z,15.85
2014-09-12T09:11:46.907Z,15.96
2014-09-12T09:12:51.894Z,15.8
2014-09-12T09:13:56.568Z,15.96
2014-09-12T09:15:01.538Z,15.98
2014-09-12T09:16:06.229Z,15.89
2014-09-12T09:17:10.917Z,15.9
2014-09-12T09:18:15.591Z,16.05
2014-09-12T09:19:20.579Z,15.78
2014-09-12T09:20:25.548Z,15.4
2014-09-12T09:21:30.239Z,15.69
2014-09-12T09:22:35.210Z,15.94
2014-09-12T09:23:39.899Z,16.01
2014-09-12T09:24:44.589Z,15.94
2014-09-12T09:25:49.263Z,15.91
2014-09-12T09:26:53.952Z,16.12
2014-09-12T09:27:58.642Z,15.94
2014-09-12T09:29:03.315Z,16.11
2014-09-12T09:30:07.989Z,15.98
2014-09-12T09:31:12.679Z,16.07
2014-09-12T09:32:17.368Z,16.03
2014-09-12T09:33:22.340Z,16.11
2014-09-12T09:34:27.061Z,15.89
2014-09-12T09:35:31.750Z,15.97
2014-09-12T09:36:36.440Z,15.93
2014-09-12T09:37:41.114Z,16.02
2014-09-12T09:38:45.802Z,16.11
2014-09-12T09:39:50.790Z,16.08
2014-09-12T09:40:55.760Z,15.9
2014-09-12T09:42:00.747Z,15.85
2014-09-12T09:43:05.421Z,15.72
2014-09-12T09:44:10.111Z,15.76
2014-09-12T09:45:14.785Z,15.78
2014-09-12T09:46:19.473Z,15.86
2014-09-12T09:47:24.147Z,15.69
2014-09-12T09:48:28.838Z,15.79
2014-09-12T09:49:33.512Z,15.95
2014-09-12T09:50:38.498Z,15.65
2014-09-12T09:51:43.484Z,15.57
2014-09-12T09:52:48.157Z,15.74
2014-09-12T09:53:52.847Z,15.56
2014-09-12T09:54:57.522Z,15.2
2014-09-12T09:56:02.211Z,15.26
2014-09-12T09:57:06.885Z,15.62
2014-09-12T09:58:11.871Z,15.74
2014-09-12T09:59:16.842Z,15.89
2014-09-12T10:00:21.533Z,15.63
2014-09-12T10:01:26.206Z,15.8
2014-09-12T10:02:31.193Z,15.86
2014-09-12T10:03:36.164Z,15.9
2014-09-12T10:04:40.852Z,15.86
2014-09-12T10:05:45.543Z,15.85
2014-09-12T10:06:50.217Z,15.56
2014-09-12T10:07:54.906Z,15.7
2014-09-12T10:08:59.580Z,15.71
2014-09-12T10:10:04.269Z,15.86
2014-09-12T10:11:08.271Z,15.72
2014-09-12T10:12:12.945Z,15.68
2014-09-12T10:13:17.635Z,15.56
2014-09-12T10:14:22.309Z,15.68
2014-09-12T10:15:27.343Z,15.56
2014-09-12T10:16:32.031Z,15.51
2014-09-12T10:17:36.033Z,15.67
2014-09-12T10:18:40.707Z,15.74
2014-09-12T10:19:45.381Z,15.75
2014-09-12T10:20:50.369Z,15.91
2014-09-12T10:21:55.058Z,15.62
2014-09-12T10:22:59.748Z,15.73
2014-09-12T10:24:04.421Z,15.8
2014-09-12T10:25:09.111Z,15.92
2014-09-12T10:26:13.785Z,15.87
2014-09-12T10:27:18.459Z,15.6
2014-09-12T10:28:23.148Z,15.4
2014-09-12T10:29:27.823Z,15.58
2014-09-12T10:30:32.513Z,15.53
2014-09-12T10:31:37.185Z,15.42
2014-09-12T10:32:41.875Z,15.42
2014-09-12T10:33:46.550Z,15.67
2014-09-12T10:34:51.520Z,15.8
2014-09-12T10:35:56.210Z,15.67
2014-09-12T10:37:00.884Z,15.68
2014-09-12T10:38:05.869Z,15.69
2014-09-12T10:39:10.543Z,15.67
2014-09-12T10:40:15.234Z,15.56
2014-09-12T10:41:19.908Z,15.55
2014-09-12T10:42:24.597Z,15.66
2014-09-12T10:43:29.287Z,15.31
2014-09-12T10:44:34.257Z,15.61
2014-09-12T10:45:38.947Z,15.47
2014-09-12T10:46:43.621Z,15.55
2014-09-12T10:47:47.623Z,15.7
2014-09-12T10:48:52.610Z,15.67
2014-09-12T10:49:57.284Z,15.7
2014-09-12T10:51:01.972Z,15.58
2014-09-12T10:52:06.662Z,15.61
2014-09-12T10:53:11.337Z,15.63
2014-09-12T10:54:16.026Z,15.62
2014-09-12T10:55:20.699Z,15.8
2014-09-12T10:56:25.390Z,15.88
2014-09-12T10:57:30.079Z,15.88
2014-09-12T10:58:35.050Z,15.9
2014-09-12T10:59:40.036Z,15.96
2014-09-12T11:00:44.710Z,15.88
2014-09-12T11:01:49.401Z,15.86
2014-09-12T11:02:54.074Z,16.01
2014-09-12T11:03:58.076Z,15.98
2014-09-12T11:05:02.749Z,15.94
2014-09-12T11:06:06.751Z,15.6
2014-09-12T11:07:11.442Z,15.52
2014-09-12T11:08:16.116Z,15.68
2014-09-12T11:09:20.804Z,15.82
2014-09-12T11:10:25.478Z,15.86
2014-09-12T11:11:30.466Z,15.86
2014-09-12T11:12:35.155Z,15.7
2014-09-12T11:13:39.829Z,15.89
2014-09-12T11:14:44.518Z,16.02
2014-09-12T11:15:49.489Z,15.8
2014-09-12T11:16:54.164Z,15.8
2014-09-12T11:17:58.853Z,15.93
2014-09-12T11:19:03.839Z,15.9
2014-09-12T11:20:08.514Z,15.99
2014-09-12T11:21:13.485Z,15.89
2014-09-12T11:22:18.173Z,15.95
2014-09-12T11:23:22.847Z,15.96
2014-09-12T11:24:27.833Z,16.06
2014-09-12T11:25:32.507Z,15.98
2014-09-12T11:26:37.198Z,16.02
2014-09-12T11:27:41.872Z,16.12
2014-09-12T11:28:45.858Z,16.1
2014-09-12T11:29:50.547Z,16.12
2014-09-12T11:30:55.237Z,15.75
2014-09-12T11:31:59.911Z,15.83
2014-09-12T11:33:04.897Z,15.99
2014-09-12T11:34:09.884Z,15.99
2014-09-12T11:35:14.557Z,16.02
2014-09-12T11:36:19.247Z,15.82
2014-09-12T11:37:23.936Z,15.85
2014-09-12T11:38:28.626Z,15.9
2014-09-12T11:39:33.597Z,15.66
2014-09-12T11:40:38.583Z,15.56
2014-09-12T11:41:43.257Z,15.59
2014-09-12T11:42:47.946Z,15.72
2014-09-12T11:43:52.620Z,15.72
2014-09-12T11:44:57.591Z,15.7
2014-09-12T11:46:02.281Z,15.89
2014-09-12T11:47:06.970Z,15.77
2014-09-12T11:48:11.646Z,15.66
2014-09-12T11:49:16.334Z,15.48
2014-09-12T11:50:21.008Z,15.78
2014-09-12T11:51:25.682Z,15.72
2014-09-12T11:52:30.373Z,15.81
2014-09-12T11:53:35.047Z,15.84
2014-09-12T11:54:39.736Z,15.75
2014-09-12T11:55:44.410Z,15.62
2014-09-12T11:56:49.099Z,15.76
2014-09-12T11:57:53.773Z,15.92
2014-09-12T11:58:58.760Z,15.97
2014-09-12T12:00:03.730Z,15.94
2014-09-12T12:01:08.717Z,15.91
2014-09-12T12:02:13.687Z,16
2014-09-12T12:03:18.360Z,15.8
2014-09-12T12:04:23.034Z,15.79
2014-09-12T12:05:27.724Z,15.7
2014-09-12T12:06:32.696Z,15.75
2014-09-12T12:07:37.385Z,15.72
2014-09-12T12:08:42.059Z,15.92
2014-09-12T12:09:46.747Z,15.83
2014-09-12T12:10:51.718Z,15.67
2014-09-12T12:11:56.408Z,15.77
2014-09-12T12:13:01.084Z,15.83
2014-09-12T12:14:05.757Z,15.86
2014-09-12T12:15:10.494Z,15.86
2014-09-12T12:16:15.168Z,15.78
2014-09-12T12:17:19.857Z,15.64
2014-09-12T12:18:24.531Z,15.83
2014-09-12T12:19:29.221Z,15.8
2014-09-12T12:20:33.894Z,15.74
2014-09-12T12:21:38.584Z,15.9
2014-09-12T12:22:43.258Z,15.88
2014-09-12T12:23:48.244Z,15.84
2014-09-12T12:24:52.918Z,15.78
2014-09-12T12:25:57.905Z,15.82
2014-09-12T12:27:02.579Z,15.98
2014-09-12T12:28:07.269Z,16.21
2014-09-12T12:29:11.943Z,16.04
2014-09-12T12:30:16.928Z,15.78
2014-09-12T12:31:21.603Z,16.06
2014-09-12T12:32:26.292Z,16.01
2014-09-12T12:33:31.263Z,16.16
2014-09-12T12:34:36.250Z,16.23
2014-09-12T12:35:40.922Z,16.04
2014-09-12T12:36:45.612Z,15.92
2014-09-12T12:37:50.286Z,15.59
2014-09-12T12:38:54.975Z,15.82
2014-09-12T12:39:59.649Z,16.05
2014-09-12T12:41:04.339Z,16
2014-09-12T12:42:09.311Z,16.01
2014-09-12T12:43:14.298Z,16.02
2014-09-12T12:44:18.972Z,16.14
2014-09-12T12:45:23.958Z,16.08
2014-09-12T12:46:28.929Z,16.09
2014-09-12T12:47:33.618Z,15.98
2014-09-12T12:48:38.292Z,16.08
2014-09-12T12:49:43.294Z,16.27
2014-09-12T12:50:47.969Z,16.29
2014-09-12T12:51:53.252Z,16.18
2014-09-12T12:52:58.239Z,16.12
2014-09-12T12:54:02.928Z,16.14
2014-09-12T12:55:07.602Z,16.34
2014-09-12T12:56:12.588Z,16.4
2014-09-12T12:57:17.559Z,16.41
2014-09-12T12:58:22.248Z,16.27
2014-09-12T12:59:26.937Z,16.6
2014-09-12T13:00:31.611Z,16.61
2014-09-12T13:01:36.301Z,16.36
2014-09-12T13:02:40.974Z,16.38
2014-09-12T13:03:45.648Z,16.56
2014-09-12T13:04:50.338Z,16.44
2014-09-12T13:05:55.012Z,16.39
2014-09-12T13:06:59.999Z,16.51
2014-09-12T13:08:04.689Z,16.46
2014-09-12T13:09:09.659Z,16.52
2014-09-12T13:10:14.364Z,16.53
2014-09-12T13:11:19.054Z,16.43
2014-09-12T13:12:23.743Z,16.46
2014-09-12T13:13:28.417Z,16.61
2014-09-12T13:14:33.091Z,16.5
2014-09-12T13:15:38.078Z,16.64
2014-09-12T13:16:42.751Z,16.69
2014-09-12T13:17:47.441Z,16.66
2014-09-12T13:18:52.115Z,16.42
2014-09-12T13:19:56.804Z,16.48
2014-09-12T13:21:01.478Z,16.47
2014-09-12T13:22:06.168Z,16.41
2014-09-12T13:23:10.859Z,16.38
2014-09-12T13:24:15.533Z,16.32
2014-09-12T13:25:20.207Z,16.35
2014-09-12T13:26:25.193Z,16.42
2014-09-12T13:27:29.867Z,16.46
2014-09-12T13:28:34.557Z,16.5
2014-09-12T13:29:39.527Z,16.46
2014-09-12T13:30:44.217Z,16.58
2014-09-12T13:31:49.188Z,16.68
2014-09-12T13:32:53.877Z,16.54
2014-09-12T13:33:58.879Z,16.52
2014-09-12T13:35:03.569Z,16.34
2014-09-12T13:36:08.243Z,16.5
2014-09-12T13:37:12.932Z,16.6
2014-09-12T13:38:17.903Z,16.55
2014-09-12T13:39:22.889Z,16.43
2014-09-12T13:40:27.579Z,16.38
2014-09-12T13:41:32.253Z,16.34
2014-09-12T13:42:36.942Z,16.47
2014-09-12T13:43:41.616Z,16.46
2014-09-12T13:44:46.305Z,16.62
2014-09-12T13:45:50.979Z,16.63
2014-09-12T13:46:55.684Z,16.42
2014-09-12T13:48:00.357Z,16.34
2014-09-12T13:49:05.344Z,16.33
2014-09-12T13:50:10.020Z,16.34
2014-09-12T13:51:15.007Z,16.32
2014-09-12T13:52:19.993Z,16.41
2014-09-12T13:53:24.683Z,16.6
2014-09-12T13:54:29.357Z,16.61
2014-09-12T13:55:34.046Z,16.68
2014-09-12T13:56:39.032Z,16.56
2014-09-12T13:57:44.003Z,16.7
2014-09-12T13:58:48.677Z,16.46
2014-09-12T13:59:53.367Z,16.51
2014-09-12T14:00:58.041Z,16.62
2014-09-12T14:02:02.730Z,16.59